Time;durP1;ratioP1;P1;durP2;ratioP2;P2;SDS_P1;SDS_P2;PMS_P1;PMS_P2;Temp;Humidity;BMP_temperature;BMP_pressure;BME280_temperature;BME280_humidity;BME280_pressure;Samples;Min_cycle;Max_cycle;Signal;HPM_P1;HPM_P2
2020/12/09 00:00:10;;;;;;;37.83;21.70;;;2.50;99.90;;;;;;5031341;28;20053;-78
2020/12/09 00:02:35;;;;;;;28.67;16.90;;;2.50;99.90;;;;;;5031778;28;20477;-78
2020/12/09 00:05:05;;;;;;;38.08;21.85;;;2.70;99.90;;;;;;5031314;28;20275;-78
2020/12/09 00:07:34;;;;;;;40.28;21.70;;;2.70;99.90;;;;;;5031410;28;20030;-78
2020/12/09 00:10:00;;;;;;;41.38;23.15;;;2.50;99.90;;;;;;5032664;28;20075;-78
2020/12/09 00:12:30;;;;;;;35.42;21.25;;;2.50;99.90;;;;;;5033262;28;20246;-79
2020/12/09 00:14:57;;;;;;;35.28;20.55;;;2.80;99.90;;;;;;5032519;28;20029;-78
2020/12/09 00:17:22;;;;;;;38.35;21.98;;;2.90;99.90;;;;;;5031483;28;20034;-78
2020/12/09 00:19:48;;;;;;;33.92;19.35;;;2.90;99.90;;;;;;5032991;28;20036;-78
2020/12/09 00:22:14;;;;;;;31.95;20.52;;;3.00;99.90;;;;;;5015262;28;20116;-78
2020/12/09 00:24:39;;;;;;;33.10;19.90;;;3.00;99.90;;;;;;5031191;28;20034;-78
2020/12/09 00:27:05;;;;;;;32.95;20.38;;;2.90;99.90;;;;;;5015163;28;20477;-78
2020/12/09 00:29:31;;;;;;;35.78;20.45;;;2.80;99.90;;;;;;5031855;28;20060;-78
2020/12/09 00:31:57;;;;;;;35.00;21.05;;;2.90;99.90;;;;;;5032676;28;20120;-78
2020/12/09 00:34:23;;;;;;;37.97;21.10;;;3.00;99.90;;;;;;5015380;28;20037;-78
2020/12/09 00:36:48;;;;;;;36.53;19.30;;;3.00;99.90;;;;;;5031850;28;20017;-78
2020/12/09 00:39:14;;;;;;;33.00;20.45;;;3.10;99.90;;;;;;5033222;28;20029;-78
2020/12/09 00:41:40;;;;;;;33.03;20.67;;;3.00;99.90;;;;;;5032912;28;20022;-78
2020/12/09 00:44:05;;;;;;;35.70;21.15;;;3.10;99.90;;;;;;5032464;28;20381;-78
2020/12/09 00:46:31;;;;;;;33.58;19.10;;;2.90;99.90;;;;;;5032536;28;20025;-78
2020/12/09 00:48:57;;;;;;;31.90;19.13;;;2.90;99.90;;;;;;5032163;28;20026;-78
2020/12/09 00:51:25;;;;;;;37.22;22.25;;;3.00;99.90;;;;;;5034445;28;20495;-78
2020/12/09 00:53:51;;;;;;;37.50;19.75;;;3.20;99.90;;;;;;5018935;28;20037;-78
2020/12/09 00:56:17;;;;;;;35.10;20.45;;;3.00;99.90;;;;;;5035759;28;20041;-78
2020/12/09 00:58:43;;;;;;;34.10;19.08;;;3.00;99.90;;;;;;5034452;28;20025;-78
2020/12/09 01:01:11;;;;;;;34.03;19.17;;;2.90;99.90;;;;;;5035042;28;20235;-78
2020/12/09 01:03:37;;;;;;;35.35;20.98;;;2.90;99.90;;;;;;5036225;28;20029;-78
2020/12/09 01:06:07;;;;;;;33.05;19.48;;;2.70;99.90;;;;;;5034914;28;20436;-78
2020/12/09 01:08:35;;;;;;;36.55;20.52;;;2.90;99.90;;;;;;5018175;28;20030;-78
2020/12/09 01:11:01;;;;;;;35.90;20.08;;;2.80;99.90;;;;;;5035915;28;20057;-78
2020/12/09 01:13:27;;;;;;;29.95;18.20;;;2.60;99.90;;;;;;5035788;28;20080;-78
2020/12/09 01:15:53;;;;;;;39.08;21.08;;;2.70;99.90;;;;;;5035907;28;20033;-78
2020/12/09 01:18:19;;;;;;;34.38;20.88;;;2.70;99.90;;;;;;5034347;28;20462;-78
2020/12/09 01:20:45;;;;;;;34.90;20.50;;;2.60;99.90;;;;;;5034699;28;20021;-78
2020/12/09 01:23:11;;;;;;;31.25;20.23;;;2.70;99.90;;;;;;5034520;28;20017;-78
2020/12/09 01:25:36;;;;;;;32.47;20.83;;;2.70;99.90;;;;;;5034126;28;20029;-78
2020/12/09 01:28:03;;;;;;;38.38;21.52;;;2.70;99.90;;;;;;5017913;28;20021;-78
2020/12/09 01:30:30;;;;;;;35.15;20.83;;;2.60;99.90;;;;;;5034698;28;20025;-78
2020/12/09 01:32:57;;;;;;;34.97;20.50;;;2.60;99.90;;;;;;5035658;28;20029;-78
2020/12/09 01:35:23;;;;;;;40.45;21.10;;;2.60;99.90;;;;;;5034331;28;20058;-77
2020/12/09 01:37:50;;;;;;;35.00;20.25;;;2.70;99.90;;;;;;5034034;28;20525;-78
2020/12/09 01:40:16;;;;;;;36.53;22.08;;;2.70;99.90;;;;;;5034197;28;20477;-78
2020/12/09 01:42:41;;;;;;;36.72;21.33;;;2.70;99.90;;;;;;5035080;28;20018;-78
2020/12/09 01:45:07;;;;;;;32.92;19.98;;;2.60;99.90;;;;;;5035147;28;20392;-78
2020/12/09 01:47:33;;;;;;;33.25;20.50;;;2.60;99.90;;;;;;5033974;28;20105;-78
2020/12/09 01:50:00;;;;;;;32.97;21.08;;;2.60;99.90;;;;;;5034336;28;20091;-78
2020/12/09 01:52:26;;;;;;;35.15;20.90;;;2.80;99.90;;;;;;5034231;28;20025;-78
2020/12/09 01:54:55;;;;;;;39.67;23.23;;;2.80;99.90;;;;;;5034129;28;20057;-78
2020/12/09 01:57:22;;;;;;;37.85;21.98;;;2.80;99.90;;;;;;5033800;28;20138;-78
2020/12/09 01:59:48;;;;;;;40.63;23.15;;;2.70;99.90;;;;;;5033873;28;20120;-78
2020/12/09 02:02:15;;;;;;;36.17;21.25;;;2.90;99.90;;;;;;5034113;28;20025;-78
2020/12/09 02:04:42;;;;;;;39.63;23.63;;;2.80;99.90;;;;;;5033481;28;20025;-78
2020/12/09 02:07:08;;;;;;;36.85;22.77;;;2.90;99.90;;;;;;5033921;28;20049;-78
2020/12/09 02:09:34;;;;;;;32.47;20.15;;;3.00;99.90;;;;;;5017162;28;20032;-78
2020/12/09 02:12:00;;;;;;;33.58;20.45;;;3.10;99.90;;;;;;5033658;28;20025;-78
2020/12/09 02:14:27;;;;;;;34.17;20.55;;;3.10;99.90;;;;;;5017387;28;20030;-78
2020/12/09 02:16:57;;;;;;;37.10;21.95;;;3.20;99.90;;;;;;5035985;28;20056;-78
2020/12/09 02:19:24;;;;;;;34.08;20.58;;;3.30;99.90;;;;;;5034015;28;20018;-78
2020/12/09 02:21:50;;;;;;;35.92;20.90;;;3.40;99.90;;;;;;5033534;28;20021;-78
2020/12/09 02:24:16;;;;;;;35.40;21.17;;;3.30;99.90;;;;;;5016568;28;20120;-78
2020/12/09 02:26:44;;;;;;;39.45;22.50;;;3.10;99.90;;;;;;5034829;28;20021;-78
2020/12/09 02:29:10;;;;;;;38.50;21.35;;;3.00;99.90;;;;;;5033448;28;20033;-78
2020/12/09 02:31:37;;;;;;;32.85;20.40;;;3.10;99.90;;;;;;5034944;28;20025;-78
2020/12/09 02:34:03;;;;;;;33.85;20.63;;;3.20;99.90;;;;;;5033902;28;20439;-79
2020/12/09 02:36:29;;;;;;;33.15;20.35;;;3.30;99.90;;;;;;5033335;28;20397;-79
2020/12/09 02:38:55;;;;;;;37.38;21.60;;;3.40;99.90;;;;;;5034915;28;20021;-78
2020/12/09 02:41:21;;;;;;;36.20;21.98;;;3.50;99.90;;;;;;5033290;28;20025;-78
2020/12/09 02:43:46;;;;;;;35.92;20.52;;;3.20;99.90;;;;;;5033191;28;20022;-78
2020/12/09 02:46:12;;;;;;;39.67;22.63;;;3.00;99.90;;;;;;5034155;28;20033;-78
2020/12/09 02:48:38;;;;;;;36.92;21.60;;;3.00;99.90;;;;;;5016563;28;20447;-78
2020/12/09 02:51:04;;;;;;;37.88;21.67;;;3.10;99.90;;;;;;5034240;28;20489;-79
2020/12/09 02:53:30;;;;;;;37.60;21.63;;;3.10;99.90;;;;;;5032873;28;20495;-78
2020/12/09 02:55:55;;;;;;;33.47;21.02;;;3.30;99.90;;;;;;5032673;28;20108;-78
2020/12/09 02:58:21;;;;;;;40.13;22.17;;;3.30;99.90;;;;;;5032974;28;20473;-78
2020/12/09 03:00:47;;;;;;;32.38;19.55;;;3.30;99.90;;;;;;5033058;28;20021;-78
2020/12/09 03:03:13;;;;;;;38.83;22.90;;;3.30;99.90;;;;;;5034251;28;20362;-78
2020/12/09 03:05:39;;;;;;;36.08;21.95;;;3.10;99.90;;;;;;5032163;28;20057;-78
2020/12/09 03:08:04;;;;;;;37.92;21.05;;;3.10;99.90;;;;;;5034008;28;20034;-78
2020/12/09 03:10:30;;;;;;;41.22;24.23;;;3.30;99.90;;;;;;5031937;28;20038;-78
2020/12/09 03:12:57;;;;;;;35.95;22.15;;;3.40;99.90;;;;;;5032473;28;20033;-78
2020/12/09 03:15:23;;;;;;;38.28;22.65;;;3.30;99.90;;;;;;5033369;28;20025;-78
2020/12/09 03:17:50;;;;;;;36.47;21.10;;;3.30;99.90;;;;;;5015908;28;20112;-79
2020/12/09 03:20:15;;;;;;;34.78;20.48;;;3.40;99.90;;;;;;5033808;28;20449;-78
2020/12/09 03:22:41;;;;;;;38.92;21.65;;;3.40;99.90;;;;;;5033922;28;20057;-78
2020/12/09 03:25:07;;;;;;;38.88;21.40;;;3.50;99.90;;;;;;5033814;28;20056;-78
2020/12/09 03:27:33;;;;;;;34.90;21.15;;;3.60;99.90;;;;;;5032087;28;20469;-78
2020/12/09 03:29:58;;;;;;;37.22;22.35;;;3.60;99.90;;;;;;5033761;28;20104;-78
2020/12/09 03:32:24;;;;;;;38.05;23.63;;;3.60;99.90;;;;;;5032940;28;20072;-78
2020/12/09 03:34:50;;;;;;;41.92;23.35;;;3.40;99.90;;;;;;5032996;28;20036;-78
2020/12/09 03:37:15;;;;;;;40.22;23.23;;;3.50;99.90;;;;;;5032489;28;20022;-78
2020/12/09 03:39:41;;;;;;;38.90;21.60;;;3.40;99.90;;;;;;5032439;28;20025;-79
2020/12/09 03:42:07;;;;;;;40.00;21.88;;;3.40;99.90;;;;;;5032828;28;20026;-78
2020/12/09 03:44:33;;;;;;;35.40;22.05;;;3.30;99.90;;;;;;5033133;28;20021;-78
2020/12/09 03:46:59;;;;;;;35.10;21.67;;;3.30;99.90;;;;;;5031577;28;20021;-78
2020/12/09 03:49:25;;;;;;;39.95;22.65;;;3.40;99.90;;;;;;5033245;28;20524;-78
2020/12/09 03:51:51;;;;;;;42.70;24.33;;;3.50;99.90;;;;;;5031569;28;20108;-78
2020/12/09 03:54:17;;;;;;;34.80;21.35;;;3.50;99.90;;;;;;5031900;28;20337;-78
2020/12/09 03:56:43;;;;;;;35.97;21.92;;;3.40;99.90;;;;;;5033141;28;20021;-78
2020/12/09 03:59:08;;;;;;;40.25;22.95;;;3.20;99.90;;;;;;5032904;28;20021;-78
2020/12/09 04:01:34;;;;;;;41.33;22.95;;;3.30;99.90;;;;;;5031650;28;20028;-78
2020/12/09 04:04:00;;;;;;;37.45;23.00;;;3.20;99.90;;;;;;5032345;28;20026;-78
2020/12/09 04:06:26;;;;;;;39.45;23.52;;;3.20;99.90;;;;;;5032579;28;20515;-78
2020/12/09 04:08:52;;;;;;;41.28;23.42;;;3.20;99.90;;;;;;5033110;28;20025;-78
2020/12/09 04:11:18;;;;;;;39.38;22.77;;;3.40;99.90;;;;;;5031503;28;20396;-78
2020/12/09 04:13:43;;;;;;;40.42;23.20;;;3.40;99.90;;;;;;5032005;28;20128;-78
2020/12/09 04:16:09;;;;;;;42.30;24.85;;;3.50;99.90;;;;;;5014970;28;20037;-78
2020/12/09 04:18:35;;;;;;;38.08;22.52;;;3.50;99.90;;;;;;5014857;28;20025;-78
2020/12/09 04:21:01;;;;;;;41.70;24.88;;;3.40;99.90;;;;;;5032525;28;20034;-78
2020/12/09 04:23:27;;;;;;;42.92;24.58;;;3.40;99.90;;;;;;5031183;28;20026;-78
2020/12/09 04:25:53;;;;;;;40.72;23.13;;;3.20;99.90;;;;;;5033903;28;20113;-78
2020/12/09 04:28:18;;;;;;;42.83;25.48;;;3.10;99.90;;;;;;5034763;28;20481;-78
2020/12/09 04:30:44;;;;;;;40.13;24.77;;;3.10;99.90;;;;;;5037281;28;20033;-77
2020/12/09 04:33:10;;;;;;;44.08;26.27;;;3.00;99.90;;;;;;5036533;28;20032;-77
2020/12/09 04:35:38;;;;;;;40.72;23.00;;;2.90;99.90;;;;;;5035098;28;20057;-77
2020/12/09 04:38:04;;;;;;;42.95;24.80;;;2.80;99.90;;;;;;5035260;28;20075;-78
2020/12/09 04:40:30;;;;;;;43.38;23.95;;;2.90;99.90;;;;;;5036855;28;20108;-78
2020/12/09 04:42:59;;;;;;;44.85;24.17;;;3.10;99.90;;;;;;5036554;28;20030;-78
2020/12/09 04:45:27;;;;;;;42.80;24.67;;;3.00;99.90;;;;;;5034753;28;20367;-77
2020/12/09 04:48:12;;;;;;;42.45;24.30;;;3.10;99.90;;;;;;5036170;28;20026;-78
2020/12/09 04:50:57;;;;;;;37.95;22.67;;;3.10;99.90;;;;;;5036504;28;20083;-78
2020/12/09 04:53:28;;;;;;;39.88;23.38;;;3.10;99.90;;;;;;5036160;28;20021;-78
2020/12/09 04:55:58;;;;;;;40.28;23.45;;;3.20;99.90;;;;;;5035450;28;20105;-78
2020/12/09 04:58:42;;;;;;;44.55;25.48;;;3.30;99.90;;;;;;5018352;28;20076;-78
2020/12/09 05:01:13;;;;;;;40.00;23.73;;;3.40;99.90;;;;;;5036364;28;20049;-77
2020/12/09 05:03:50;;;;;;;44.10;23.58;;;3.30;99.90;;;;;;5034606;28;20105;-78
2020/12/09 05:06:18;;;;;;;40.95;24.42;;;3.30;99.90;;;;;;5035207;28;20438;-78
2020/12/09 05:08:56;;;;;;;44.30;23.77;;;3.30;99.90;;;;;;5035976;28;20032;-78
2020/12/09 05:11:24;;;;;;;45.08;24.23;;;3.20;99.90;;;;;;5034685;28;20068;-78
2020/12/09 05:13:58;;;;;;;43.28;24.63;;;3.40;99.90;;;;;;5034916;28;20025;-77
2020/12/09 05:16:25;;;;;;;48.33;26.23;;;3.40;99.90;;;;;;5035864;28;20547;-77
2020/12/09 05:19:03;;;;;;;46.97;25.60;;;3.40;99.90;;;;;;5034373;28;20146;-77
2020/12/09 05:21:30;;;;;;;45.03;25.40;;;3.30;99.90;;;;;;5034619;28;20109;-78
2020/12/09 05:24:00;;;;;;;43.63;25.60;;;3.40;99.90;;;;;;5018071;28;20029;-78
2020/12/09 05:26:36;;;;;;;46.42;26.10;;;3.50;99.90;;;;;;5035632;28;20026;-78
2020/12/09 05:29:09;;;;;;;46.00;25.92;;;3.40;99.90;;;;;;5017862;28;20021;-78
2020/12/09 05:31:36;;;;;;;43.42;24.35;;;3.30;99.90;;;;;;5018000;28;20163;-77
2020/12/09 05:34:11;;;;;;;50.35;28.15;;;3.30;99.90;;;;;;5034742;28;20067;-77
2020/12/09 05:36:46;;;;;;;51.70;26.35;;;3.30;99.90;;;;;;5035320;28;20087;-78
2020/12/09 05:39:12;;;;;;;42.38;25.30;;;3.40;99.90;;;;;;5035712;28;20021;-78
2020/12/09 05:41:38;;;;;;;47.30;27.50;;;3.40;99.90;;;;;;5017972;28;20393;-78
2020/12/09 05:44:04;;;;;;;49.90;27.27;;;3.50;99.90;;;;;;5034667;28;20057;-77
2020/12/09 05:46:57;;;;;;;47.80;26.65;;;3.50;99.90;;;;;;5034651;28;20033;-78
2020/12/09 05:49:29;;;;;;;44.50;26.95;;;3.60;99.90;;;;;;5017976;28;20169;-78
2020/12/09 05:52:15;;;;;;;46.72;26.95;;;3.50;99.90;;;;;;5035641;28;20017;-78
2020/12/09 05:54:52;;;;;;;47.05;26.67;;;3.50;99.90;;;;;;5036028;28;20025;-78
2020/12/09 05:57:23;;;;;;;49.40;27.38;;;3.50;99.90;;;;;;5035581;28;20354;-78
2020/12/09 05:59:50;;;;;;;50.00;27.88;;;3.40;99.90;;;;;;5034520;28;20578;-78
2020/12/09 06:02:17;;;;;;;51.33;28.50;;;3.30;99.90;;;;;;5033798;28;20026;-77
2020/12/09 06:04:50;;;;;;;54.25;29.33;;;3.30;99.90;;;;;;5034976;28;20022;-78
2020/12/09 06:07:16;;;;;;;53.20;28.45;;;3.10;99.90;;;;;;5034132;28;20057;-78
2020/12/09 06:10:04;;;;;;;55.75;27.30;;;3.10;99.90;;;;;;5035227;28;20067;-78
2020/12/09 06:12:51;;;;;;;56.75;30.55;;;3.20;99.90;;;;;;5034352;28;20036;-77
2020/12/09 06:15:19;;;;;;;66.38;29.10;;;3.20;99.90;;;;;;5012069;28;20026;-78
2020/12/09 06:17:44;;;;;;;65.05;31.83;;;3.30;99.90;;;;;;5032534;28;20045;-78
2020/12/09 06:20:10;;;;;;;67.03;31.48;;;3.10;99.90;;;;;;5034075;28;20040;-78
2020/12/09 06:22:36;;;;;;;70.13;33.97;;;3.10;99.90;;;;;;5033491;28;20432;-77
2020/12/09 06:25:07;;;;;;;72.28;34.60;;;3.30;99.90;;;;;;5033538;28;20033;-78
2020/12/09 06:27:35;;;;;;;71.82;36.70;;;3.20;99.90;;;;;;5017059;28;20028;-77
2020/12/09 06:30:01;;;;;;;71.07;36.08;;;3.00;99.90;;;;;;5034452;28;20029;-77
2020/12/09 06:32:44;;;;;;;76.78;34.13;;;3.00;99.90;;;;;;5034068;28;20080;-78
2020/12/09 06:35:10;;;;;;;72.72;37.58;;;2.80;99.90;;;;;;5033762;28;20029;-78
2020/12/09 06:37:36;;;;;;;67.00;33.35;;;2.90;99.90;;;;;;5035191;28;20022;-78
2020/12/09 06:40:13;;;;;;;90.93;34.78;;;3.00;99.90;;;;;;5035043;28;20033;-77
2020/12/09 06:42:39;;;;;;;84.13;34.30;;;3.00;99.90;;;;;;5035360;28;20018;-78
2020/12/09 06:45:05;;;;;;;63.28;32.53;;;3.00;99.90;;;;;;5033283;28;20034;-78
2020/12/09 06:47:32;;;;;;;67.25;32.28;;;2.90;99.90;;;;;;5033528;28;20030;-77
2020/12/09 06:50:00;;;;;;;63.95;31.60;;;2.80;99.90;;;;;;5031225;28;20040;-78
2020/12/09 06:52:36;;;;;;;66.40;33.05;;;3.00;99.90;;;;;;5016258;28;20030;-77
2020/12/09 06:55:04;;;;;;;72.75;34.55;;;2.90;99.90;;;;;;5032681;28;20031;-78
2020/12/09 06:57:35;;;;;;;76.32;36.10;;;2.90;99.90;;;;;;5033988;28;20029;-78
2020/12/09 07:00:15;;;;;;;72.32;35.20;;;2.90;99.90;;;;;;5015774;28;20028;-78
2020/12/09 07:02:42;;;;;;;87.63;35.08;;;2.70;99.90;;;;;;5032604;28;20393;-78
2020/12/09 07:05:28;;;;;;;72.57;34.70;;;2.60;99.90;;;;;;5015198;28;20026;-78
2020/12/09 07:08:00;;;;;;;75.57;34.58;;;2.70;99.90;;;;;;5034315;28;20030;-78
2020/12/09 07:10:27;;;;;;;69.40;33.20;;;2.70;99.90;;;;;;5032583;28;20124;-78
2020/12/09 07:13:03;;;;;;;77.13;36.25;;;2.90;99.90;;;;;;5015410;28;20029;-78
2020/12/09 07:15:29;;;;;;;77.20;36.22;;;2.70;99.90;;;;;;5015365;28;20485;-77
2020/12/09 07:17:56;;;;;;;74.78;36.90;;;2.80;99.90;;;;;;5032297;28;20017;-77
2020/12/09 07:20:22;;;;;;;85.40;38.35;;;2.70;99.90;;;;;;5033713;28;20018;-78
2020/12/09 07:22:48;;;;;;;92.28;36.75;;;2.90;99.90;;;;;;5033432;28;20013;-78
2020/12/09 07:25:14;;;;;;;94.97;36.47;;;3.00;99.90;;;;;;5032455;28;20485;-78
2020/12/09 07:27:40;;;;;;;74.15;34.60;;;3.10;99.90;;;;;;5034031;28;20032;-78
2020/12/09 07:30:13;;;;;;;104.97;36.72;;;3.10;99.90;;;;;;5033325;28;20021;-77
2020/12/09 07:32:39;;;;;;;88.65;36.35;;;3.00;99.90;;;;;;5032259;28;20025;-78
2020/12/09 07:35:10;;;;;;;99.53;36.80;;;3.00;99.90;;;;;;5033464;28;20126;-78
2020/12/09 07:37:41;;;;;;;88.00;38.67;;;2.90;99.90;;;;;;5034549;28;20025;-79
2020/12/09 07:40:29;;;;;;;94.55;38.13;;;2.90;99.90;;;;;;5033194;28;20488;-81
2020/12/09 07:43:06;;;;;;;76.07;36.05;;;3.00;99.90;;;;;;5030367;28;20026;-78
2020/12/09 07:45:34;;;;;;;108.28;39.92;;;2.90;99.90;;;;;;5015177;28;20125;-78
2020/12/09 07:48:09;;;;;;;81.22;38.20;;;2.80;99.90;;;;;;5013613;28;20033;-77
2020/12/09 07:50:35;;;;;;;96.50;37.60;;;2.70;99.90;;;;;;5014301;28;20026;-78
2020/12/09 07:53:02;;;;;;;119.35;40.95;;;2.60;99.90;;;;;;4997280;28;20036;-78
2020/12/09 07:55:28;;;;;;;87.75;40.72;;;2.60;99.90;;;;;;5030030;28;20034;-78
2020/12/09 07:58:10;;;;;;;104.13;44.92;;;2.60;99.90;;;;;;5028904;28;20473;-76
2020/12/09 08:00:44;;;;;;;85.45;41.33;;;2.70;99.90;;;;;;5030179;28;20053;-76
2020/12/09 08:03:26;;;;;;;89.65;39.13;;;2.70;99.90;;;;;;5027239;28;20026;-77
2020/12/09 08:05:54;;;;;;;91.22;36.65;;;2.60;99.90;;;;;;5033309;28;20029;-77
2020/12/09 08:08:20;;;;;;;83.90;36.20;;;2.50;99.90;;;;;;5031863;28;20029;-79
2020/12/09 08:10:48;;;;;;;83.53;35.88;;;2.50;99.90;;;;;;5033838;28;20477;-78
2020/12/09 08:13:15;;;;;;;95.68;38.53;;;2.80;99.90;;;;;;5030229;28;20022;-78
2020/12/09 08:15:43;;;;;;;91.47;39.22;;;2.80;99.90;;;;;;5030029;28;20025;-77
2020/12/09 08:18:20;;;;;;;80.07;34.67;;;2.80;99.90;;;;;;5030477;28;20104;-77
2020/12/09 08:20:48;;;;;;;74.30;34.25;;;2.90;99.90;;;;;;5009351;28;20030;-77
2020/12/09 08:23:14;;;;;;;89.05;36.05;;;3.10;99.90;;;;;;5031311;28;20033;-77
2020/12/09 08:25:48;;;;;;;72.82;32.65;;;3.10;99.90;;;;;;5029996;28;20022;-77
2020/12/09 08:28:18;;;;;;;92.53;33.78;;;3.20;99.90;;;;;;5032257;28;20122;-77
2020/12/09 08:30:44;;;;;;;75.70;32.50;;;3.30;99.90;;;;;;5013961;28;20475;-77
2020/12/09 08:33:09;;;;;;;67.25;30.13;;;3.40;99.90;;;;;;5029708;28;20117;-76
2020/12/09 08:35:45;;;;;;;69.53;31.45;;;3.20;99.90;;;;;;5029240;28;20386;-76
2020/12/09 08:38:26;;;;;;;59.95;30.98;;;3.20;99.90;;;;;;5029543;28;20033;-76
2020/12/09 08:40:54;;;;;;;60.05;30.50;;;2.90;99.90;;;;;;5023139;28;20026;-76
2020/12/09 08:43:25;;;;;;;53.30;26.23;;;2.70;99.90;;;;;;5029262;28;20052;-76
2020/12/09 08:45:51;;;;;;;55.72;28.15;;;2.80;99.90;;;;;;5027500;28;20076;-76
2020/12/09 08:48:18;;;;;;;55.35;27.77;;;2.90;99.90;;;;;;5028813;28;20026;-76
2020/12/09 08:50:45;;;;;;;51.88;26.65;;;3.00;99.90;;;;;;5028853;28;20028;-76
2020/12/09 08:53:11;;;;;;;51.28;25.85;;;3.20;99.90;;;;;;5028556;28;20053;-76
2020/12/09 08:55:38;;;;;;;66.85;26.42;;;3.30;99.90;;;;;;5028989;28;20408;-77
2020/12/09 08:58:03;;;;;;;55.55;27.00;;;3.40;99.90;;;;;;5010781;28;20021;-76
2020/12/09 09:00:30;;;;;;;51.35;24.70;;;3.30;99.90;;;;;;5028932;28;20555;-76
2020/12/09 09:02:56;;;;;;;50.67;25.17;;;3.20;99.90;;;;;;5010854;28;20053;-76
2020/12/09 09:05:23;;;;;;;51.15;24.52;;;3.20;99.90;;;;;;5027337;28;20418;-76
2020/12/09 09:07:48;;;;;;;49.92;24.92;;;3.40;99.90;;;;;;5028974;28;20029;-76
2020/12/09 09:10:14;;;;;;;50.17;25.63;;;3.40;99.90;;;;;;5028800;28;20156;-77
2020/12/09 09:12:40;;;;;;;75.28;25.90;;;3.30;99.90;;;;;;5031002;28;20029;-77
2020/12/09 09:15:06;;;;;;;67.15;25.27;;;3.30;99.90;;;;;;5030817;28;20120;-76
2020/12/09 09:17:31;;;;;;;60.30;23.67;;;3.20;99.90;;;;;;5047839;28;20022;-76
2020/12/09 09:19:58;;;;;;;67.65;24.08;;;3.20;99.90;;;;;;5031342;28;20497;-77
2020/12/09 09:22:24;;;;;;;57.20;23.13;;;3.20;99.90;;;;;;5014927;28;20028;-76
2020/12/09 09:24:50;;;;;;;58.20;25.60;;;3.20;99.90;;;;;;5031037;28;20125;-76
2020/12/09 09:27:16;;;;;;;52.40;21.58;;;3.30;99.90;;;;;;5031892;28;20093;-76
2020/12/09 09:29:42;;;;;;;48.33;20.17;;;3.30;99.90;;;;;;5032296;28;20128;-76
2020/12/09 09:32:09;;;;;;;67.95;22.02;;;3.30;99.90;;;;;;5031961;28;20100;-76
2020/12/09 09:34:35;;;;;;;45.83;21.17;;;3.30;99.90;;;;;;5031470;28;20018;-77
2020/12/09 09:37:04;;;;;;;47.17;20.15;;;3.30;99.90;;;;;;5031348;28;20026;-76
2020/12/09 09:39:30;;;;;;;56.30;20.17;;;3.30;99.90;;;;;;5031493;28;20037;-77
2020/12/09 09:41:57;;;;;;;38.22;19.70;;;3.10;99.90;;;;;;5031188;28;20029;-76
2020/12/09 09:44:23;;;;;;;46.42;18.73;;;3.20;99.90;;;;;;5030198;28;20071;-76
2020/12/09 09:46:49;;;;;;;35.05;18.98;;;3.20;99.90;;;;;;5032114;28;20477;-76
2020/12/09 09:49:14;;;;;;;43.92;19.42;;;2.90;99.90;;;;;;5030159;28;20079;-76
2020/12/09 09:51:40;;;;;;;40.40;20.48;;;2.70;99.90;;;;;;5030820;28;20513;-76
2020/12/09 09:54:06;;;;;;;45.38;20.90;;;2.60;99.90;;;;;;5031560;28;20029;-76
2020/12/09 09:56:31;;;;;;;54.03;21.42;;;2.50;99.90;;;;;;5030186;28;20036;-76
2020/12/09 09:58:57;;;;;;;53.83;23.58;;;2.40;99.90;;;;;;5032317;28;20051;-76
2020/12/09 10:01:45;;;;;;;46.80;23.58;;;2.60;99.90;;;;;;5038338;28;20021;-77
2020/12/09 10:04:20;;;;;;;54.70;24.80;;;2.60;99.90;;;;;;5031418;28;20053;-76
2020/12/09 10:06:46;;;;;;;54.78;26.25;;;2.80;99.90;;;;;;5031718;28;20029;-78
2020/12/09 10:09:13;;;;;;;51.78;24.10;;;2.90;99.90;;;;;;5031287;28;20030;-77
2020/12/09 10:11:40;;;;;;;57.53;25.35;;;2.80;99.90;;;;;;5032581;28;20489;-77
2020/12/09 10:14:06;;;;;;;51.13;25.20;;;2.70;99.90;;;;;;5032416;28;20032;-76
2020/12/09 10:16:32;;;;;;;51.60;24.00;;;2.60;99.90;;;;;;5028014;28;20030;-77
2020/12/09 10:19:01;;;;;;;47.53;22.55;;;2.60;99.90;;;;;;5032124;28;20021;-77
2020/12/09 10:21:30;;;;;;;46.20;23.42;;;2.70;99.90;;;;;;5031530;28;20347;-77
2020/12/09 10:23:56;;;;;;;44.65;22.30;;;2.80;99.90;;;;;;5029972;28;20029;-77
2020/12/09 10:26:30;;;;;;;44.22;23.20;;;2.90;99.90;;;;;;5032782;28;20030;-77
2020/12/09 10:29:01;;;;;;;53.75;24.23;;;3.00;99.90;;;;;;5031230;28;20029;-77
2020/12/09 10:31:33;;;;;;;43.85;21.38;;;3.10;99.90;;;;;;5033244;28;20049;-77
2020/12/09 10:34:00;;;;;;;41.45;20.05;;;3.30;99.90;;;;;;5032402;28;20033;-77
2020/12/09 10:36:26;;;;;;;46.45;20.48;;;3.30;99.90;;;;;;5032661;28;20025;-78
2020/12/09 10:38:52;;;;;;;39.83;20.75;;;3.30;99.90;;;;;;5032857;28;20032;-76
2020/12/09 10:41:18;;;;;;;52.63;20.73;;;3.30;99.90;;;;;;5031360;28;20021;-77
2020/12/09 10:43:45;;;;;;;48.40;19.90;;;3.20;99.90;;;;;;5032425;28;20022;-76
2020/12/09 10:46:10;;;;;;;46.85;20.45;;;3.20;99.90;;;;;;5030813;28;20085;-77
2020/12/09 10:48:36;;;;;;;42.17;18.27;;;3.20;99.90;;;;;;5032105;28;20113;-76
2020/12/09 10:51:05;;;;;;;35.67;17.27;;;3.30;99.90;;;;;;5030566;28;20036;-77
2020/12/09 10:53:31;;;;;;;40.65;19.33;;;3.30;99.90;;;;;;5032679;28;20095;-77
2020/12/09 10:55:59;;;;;;;36.00;18.60;;;3.10;99.90;;;;;;5014653;28;20044;-78
2020/12/09 10:58:28;;;;;;;36.00;18.80;;;3.00;99.90;;;;;;5032432;28;20017;-78
2020/12/09 11:00:55;;;;;;;36.70;19.77;;;3.20;99.90;;;;;;5014685;28;20075;-78
2020/12/09 11:03:21;;;;;;;41.25;20.33;;;3.10;99.90;;;;;;5046977;28;20029;-77
2020/12/09 11:05:47;;;;;;;40.90;20.50;;;3.00;99.90;;;;;;5029795;28;20024;-77
2020/12/09 11:08:14;;;;;;;40.08;20.70;;;2.70;99.90;;;;;;5030715;28;20034;-77
2020/12/09 11:10:40;;;;;;;38.13;21.60;;;2.70;99.90;;;;;;5029631;28;20053;-76
2020/12/09 11:13:06;;;;;;;42.08;21.75;;;2.50;99.90;;;;;;5026619;28;20525;-77
2020/12/09 11:15:33;;;;;;;37.10;20.73;;;2.50;99.90;;;;;;5025118;28;20022;-75
2020/12/09 11:17:59;;;;;;;45.38;21.63;;;2.50;99.90;;;;;;5029369;28;20037;-76
2020/12/09 11:20:25;;;;;;;44.15;23.13;;;2.60;99.90;;;;;;5030142;28;20026;-75
2020/12/09 11:22:51;;;;;;;46.75;23.60;;;2.60;99.90;;;;;;5030463;28;20018;-75
2020/12/09 11:25:17;;;;;;;44.80;22.20;;;2.50;99.90;;;;;;5011913;28;20573;-76
2020/12/09 11:27:43;;;;;;;43.88;22.77;;;2.60;99.90;;;;;;5030339;28;20100;-76
2020/12/09 11:30:08;;;;;;;38.47;20.25;;;2.80;99.90;;;;;;5028578;28;20021;-76
2020/12/09 11:32:34;;;;;;;46.53;23.23;;;2.80;99.90;;;;;;5029238;28;20033;-76
2020/12/09 11:35:01;;;;;;;41.30;21.67;;;2.60;99.90;;;;;;5029990;28;20163;-77
2020/12/09 11:37:27;;;;;;;40.33;20.90;;;2.80;99.90;;;;;;5028384;28;20025;-77
2020/12/09 11:39:53;;;;;;;41.20;22.05;;;2.70;99.90;;;;;;5028959;28;20564;-76
2020/12/09 11:42:19;;;;;;;40.63;23.13;;;2.70;99.90;;;;;;5028256;28;20068;-76
2020/12/09 11:44:45;;;;;;;49.78;22.88;;;2.70;99.90;;;;;;5029921;28;20461;-76
2020/12/09 11:47:10;;;;;;;49.17;24.50;;;2.60;99.90;;;;;;5027855;28;20025;-76
2020/12/09 11:49:36;;;;;;;50.17;24.92;;;2.50;99.90;;;;;;5031058;28;20025;-76
2020/12/09 11:52:02;;;;;;;43.42;22.92;;;2.60;99.90;;;;;;5030092;28;20387;-77
2020/12/09 11:54:28;;;;;;;54.45;26.90;;;2.50;99.90;;;;;;5027794;28;20032;-76
2020/12/09 11:56:57;;;;;;;50.10;25.95;;;2.50;99.90;;;;;;5030380;28;20159;-76
2020/12/09 11:59:23;;;;;;;53.72;26.67;;;2.40;99.90;;;;;;5029231;28;20108;-76
2020/12/09 12:01:49;;;;;;;50.05;24.45;;;2.50;99.90;;;;;;5029673;28;20789;-76
2020/12/09 12:04:15;;;;;;;51.53;25.98;;;2.60;99.90;;;;;;5027987;28;20053;-77
2020/12/09 12:06:40;;;;;;;41.55;22.67;;;2.80;99.90;;;;;;5030048;28;20036;-76
2020/12/09 12:09:06;;;;;;;45.92;25.70;;;2.70;99.90;;;;;;5028505;28;20033;-76
2020/12/09 12:11:32;;;;;;;43.20;24.70;;;2.80;99.90;;;;;;5029164;28;20393;-77
2020/12/09 12:13:58;;;;;;;40.92;21.52;;;2.90;99.90;;;;;;5029413;28;20029;-76
2020/12/09 12:16:24;;;;;;;46.63;23.13;;;3.00;99.90;;;;;;5029104;28;20369;-77
2020/12/09 12:18:52;;;;;;;49.75;24.00;;;2.90;99.90;;;;;;5030602;28;20393;-77
2020/12/09 12:21:19;;;;;;;47.33;21.77;;;3.00;99.90;;;;;;5029467;28;20056;-77
2020/12/09 12:23:46;;;;;;;48.58;23.98;;;3.00;99.90;;;;;;5028550;28;20139;-77
2020/12/09 12:26:18;;;;;;;43.97;22.17;;;3.00;99.90;;;;;;5028273;28;20117;-77
2020/12/09 12:28:45;;;;;;;38.13;20.35;;;3.20;99.90;;;;;;5027967;28;20025;-77
2020/12/09 12:31:12;;;;;;;39.75;21.67;;;2.90;99.90;;;;;;5028454;28;20061;-76
2020/12/09 12:33:38;;;;;;;44.90;21.42;;;3.00;99.90;;;;;;5044804;28;20032;-76
2020/12/09 12:36:04;;;;;;;44.72;20.52;;;3.20;99.90;;;;;;5028370;28;20037;-75
2020/12/09 12:38:30;;;;;;;37.90;20.20;;;3.10;99.90;;;;;;5029550;28;20041;-76